sensor_id;sensor_type;location;lat;lon;timestamp;temperature;humidity
45849;DHT22;31567;54.600;9.842;2023-10-09T00:00:24;12.00;99.90
45849;DHT22;31567;54.600;9.842;2023-10-09T00:04:19;12.00;99.90
45849;DHT22;31567;54.600;9.842;2023-10-09T00:07:59;12.00;99.90
45849;DHT22;31567;54.600;9.842;2023-10-09T00:11:42;12.10;99.90
45849;DHT22;31567;54.600;9.842;2023-10-09T00:15:24;12.10;99.90
45849;DHT22;31567;54.600;9.842;2023-10-09T00:19:06;12.10;99.90
45849;DHT22;31567;54.600;9.842;2023-10-09T00:22:53;12.10;99.90
45849;DHT22;31567;54.600;9.842;2023-10-09T00:26:34;12.10;99.90
45849;DHT22;31567;54.600;9.842;2023-10-09T00:30:22;12.10;99.90
45849;DHT22;31567;54.600;9.842;2023-10-09T00:34:08;12.00;99.90
45849;DHT22;31567;54.600;9.842;2023-10-09T00:37:54;12.00;99.90
45849;DHT22;31567;54.600;9.842;2023-10-09T00:41:54;11.90;99.90
45849;DHT22;31567;54.600;9.842;2023-10-09T00:45:34;11.90;99.90
45849;DHT22;31567;54.600;9.842;2023-10-09T00:49:18;11.80;99.90
45849;DHT22;31567;54.600;9.842;2023-10-09T00:53:02;11.80;99.90
45849;DHT22;31567;54.600;9.842;2023-10-09T00:56:48;11.80;99.90
45849;DHT22;31567;54.600;9.842;2023-10-09T01:00:36;11.70;99.90
45849;DHT22;31567;54.600;9.842;2023-10-09T01:04:25;11.70;99.90
45849;DHT22;31567;54.600;9.842;2023-10-09T01:08:09;11.70;99.90
45849;DHT22;31567;54.600;9.842;2023-10-09T01:11:56;11.70;99.90
45849;DHT22;31567;54.600;9.842;2023-10-09T01:15:38;11.70;99.90
45849;DHT22;31567;54.600;9.842;2023-10-09T01:19:23;11.70;99.90
45849;DHT22;31567;54.600;9.842;2023-10-09T01:23:11;11.60;99.90
45849;DHT22;31567;54.600;9.842;2023-10-09T01:26:50;11.60;99.90
45849;DHT22;31567;54.600;9.842;2023-10-09T01:30:33;11.60;99.90
45849;DHT22;31567;54.600;9.842;2023-10-09T01:34:13;11.60;99.90
45849;DHT22;31567;54.600;9.842;2023-10-09T01:37:52;11.60;99.90
45849;DHT22;31567;54.600;9.842;2023-10-09T01:41:32;11.50;99.90
45849;DHT22;31567;54.600;9.842;2023-10-09T01:45:13;11.60;99.90
45849;DHT22;31567;54.600;9.842;2023-10-09T01:48:59;11.50;99.90
45849;DHT22;31567;54.600;9.842;2023-10-09T01:52:47;11.60;99.90
45849;DHT22;31567;54.600;9.842;2023-10-09T01:56:27;11.60;99.90
45849;DHT22;31567;54.600;9.842;2023-10-09T02:00:07;11.50;99.90
45849;DHT22;31567;54.600;9.842;2023-10-09T02:03:47;11.40;99.90
45849;DHT22;31567;54.600;9.842;2023-10-09T02:07:30;11.40;99.90
45849;DHT22;31567;54.600;9.842;2023-10-09T02:11:19;11.30;99.90
45849;DHT22;31567;54.600;9.842;2023-10-09T02:15:04;11.30;99.90
45849;DHT22;31567;54.600;9.842;2023-10-09T02:18:55;11.30;99.90
45849;DHT22;31567;54.600;9.842;2023-10-09T02:22:38;11.10;99.90
45849;DHT22;31567;54.600;9.842;2023-10-09T02:26:19;11.20;99.90
45849;DHT22;31567;54.600;9.842;2023-10-09T02:30:06;11.10;99.90
45849;DHT22;31567;54.600;9.842;2023-10-09T02:33:55;11.10;99.90
45849;DHT22;31567;54.600;9.842;2023-10-09T02:37:35;11.00;99.90
45849;DHT22;31567;54.600;9.842;2023-10-09T02:41:17;11.00;99.90
45849;DHT22;31567;54.600;9.842;2023-10-09T02:44:59;11.00;99.90
45849;DHT22;31567;54.600;9.842;2023-10-09T02:48:40;11.00;99.90
45849;DHT22;31567;54.600;9.842;2023-10-09T02:52:24;10.90;99.90
45849;DHT22;31567;54.600;9.842;2023-10-09T02:56:04;10.90;99.90
45849;DHT22;31567;54.600;9.842;2023-10-09T02:59:53;11.00;99.90
45849;DHT22;31567;54.600;9.842;2023-10-09T03:03:33;10.90;99.90
45849;DHT22;31567;54.600;9.842;2023-10-09T03:07:15;11.00;99.90
45849;DHT22;31567;54.600;9.842;2023-10-09T03:10:54;11.00;99.90
45849;DHT22;31567;54.600;9.842;2023-10-09T03:14:37;11.00;99.90
45849;DHT22;31567;54.600;9.842;2023-10-09T03:18:23;11.00;99.90
45849;DHT22;31567;54.600;9.842;2023-10-09T03:22:07;10.90;99.90
45849;DHT22;31567;54.600;9.842;2023-10-09T03:25:50;10.90;99.90
45849;DHT22;31567;54.600;9.842;2023-10-09T03:29:30;11.00;99.90
45849;DHT22;31567;54.600;9.842;2023-10-09T03:33:10;10.90;99.90
45849;DHT22;31567;54.600;9.842;2023-10-09T03:36:50;11.00;99.90
45849;DHT22;31567;54.600;9.842;2023-10-09T03:40:43;11.00;99.90
45849;DHT22;31567;54.600;9.842;2023-10-09T03:44:23;11.00;99.90
45849;DHT22;31567;54.600;9.842;2023-10-09T03:48:03;11.10;99.90
45849;DHT22;31567;54.600;9.842;2023-10-09T03:51:52;11.00;99.90
45849;DHT22;31567;54.600;9.842;2023-10-09T03:55:31;11.00;99.90
45849;DHT22;31567;54.600;9.842;2023-10-09T03:59:11;11.10;99.90
45849;DHT22;31567;54.600;9.842;2023-10-09T04:02:52;11.10;99.90
45849;DHT22;31567;54.600;9.842;2023-10-09T04:06:32;11.10;99.90
45849;DHT22;31567;54.600;9.842;2023-10-09T04:10:12;11.20;99.90
45849;DHT22;31567;54.600;9.842;2023-10-09T04:14:11;11.10;99.90
45849;DHT22;31567;54.600;9.842;2023-10-09T04:17:58;11.20;99.90
45849;DHT22;31567;54.600;9.842;2023-10-09T04:21:40;11.30;99.90
45849;DHT22;31567;54.600;9.842;2023-10-09T04:25:21;11.30;99.90
45849;DHT22;31567;54.600;9.842;2023-10-09T04:29:08;11.30;99.90
45849;DHT22;31567;54.600;9.842;2023-10-09T04:32:49;11.30;99.90
45849;DHT22;31567;54.600;9.842;2023-10-09T04:36:29;11.40;99.90
45849;DHT22;31567;54.600;9.842;2023-10-09T04:40:15;11.40;99.90
45849;DHT22;31567;54.600;9.842;2023-10-09T04:44:15;11.40;99.90
45849;DHT22;31567;54.600;9.842;2023-10-09T04:47:58;11.50;99.90
45849;DHT22;31567;54.600;9.842;2023-10-09T04:51:37;11.50;99.90
45849;DHT22;31567;54.600;9.842;2023-10-09T04:55:35;11.50;99.90
45849;DHT22;31567;54.600;9.842;2023-10-09T04:59:18;11.50;99.90
45849;DHT22;31567;54.600;9.842;2023-10-09T05:03:00;11.60;99.90
45849;DHT22;31567;54.600;9.842;2023-10-09T05:06:46;11.60;99.90
45849;DHT22;31567;54.600;9.842;2023-10-09T05:10:34;11.70;99.90
45849;DHT22;31567;54.600;9.842;2023-10-09T05:14:33;11.70;99.90
45849;DHT22;31567;54.600;9.842;2023-10-09T05:18:18;11.70;99.90
45849;DHT22;31567;54.600;9.842;2023-10-09T05:22:04;11.80;99.90
45849;DHT22;31567;54.600;9.842;2023-10-09T05:25:55;11.80;99.90
45849;DHT22;31567;54.600;9.842;2023-10-09T05:29:38;11.80;99.90
45849;DHT22;31567;54.600;9.842;2023-10-09T05:33:37;11.80;99.90
45849;DHT22;31567;54.600;9.842;2023-10-09T05:37:18;11.80;99.90
45849;DHT22;31567;54.600;9.842;2023-10-09T05:41:02;11.90;99.90
45849;DHT22;31567;54.600;9.842;2023-10-09T05:45:06;11.90;99.90
45849;DHT22;31567;54.600;9.842;2023-10-09T05:48:48;12.00;99.90
45849;DHT22;31567;54.600;9.842;2023-10-09T05:52:33;11.90;99.90
45849;DHT22;31567;54.600;9.842;2023-10-09T05:56:19;12.00;99.90
45849;DHT22;31567;54.600;9.842;2023-10-09T06:00:17;12.10;99.90
45849;DHT22;31567;54.600;9.842;2023-10-09T06:04:35;12.10;99.90
45849;DHT22;31567;54.600;9.842;2023-10-09T06:08:33;12.10;99.90
45849;DHT22;31567;54.600;9.842;2023-10-09T06:12:22;12.10;99.90
45849;DHT22;31567;54.600;9.842;2023-10-09T06:16:11;12.10;99.90
45849;DHT22;31567;54.600;9.842;2023-10-09T06:20:10;12.20;99.90
45849;DHT22;31567;54.600;9.842;2023-10-09T06:24:09;12.20;99.90
45849;DHT22;31567;54.600;9.842;2023-10-09T06:27:54;12.20;99.90
45849;DHT22;31567;54.600;9.842;2023-10-09T06:31:37;12.30;99.90
45849;DHT22;31567;54.600;9.842;2023-10-09T06:35:35;12.20;99.90
45849;DHT22;31567;54.600;9.842;2023-10-09T06:39:15;12.30;99.90
45849;DHT22;31567;54.600;9.842;2023-10-09T06:43:13;12.40;99.90
45849;DHT22;31567;54.600;9.842;2023-10-09T06:46:59;12.40;99.90
45849;DHT22;31567;54.600;9.842;2023-10-09T06:50:47;12.40;99.90
45849;DHT22;31567;54.600;9.842;2023-10-09T06:54:35;12.60;99.90
45849;DHT22;31567;54.600;9.842;2023-10-09T06:58:21;12.60;99.90
45849;DHT22;31567;54.600;9.842;2023-10-09T07:02:07;12.60;99.90
45849;DHT22;31567;54.600;9.842;2023-10-09T07:06:08;12.70;99.90
45849;DHT22;31567;54.600;9.842;2023-10-09T07:10:03;12.70;99.90
45849;DHT22;31567;54.600;9.842;2023-10-09T07:14:01;12.70;99.90
45849;DHT22;31567;54.600;9.842;2023-10-09T07:17:41;12.70;99.90
45849;DHT22;31567;54.600;9.842;2023-10-09T07:21:21;12.70;99.90
45849;DHT22;31567;54.600;9.842;2023-10-09T07:25:07;12.60;99.90
45849;DHT22;31567;54.600;9.842;2023-10-09T07:28:54;12.60;99.90
45849;DHT22;31567;54.600;9.842;2023-10-09T07:32:40;12.60;99.90
45849;DHT22;31567;54.600;9.842;2023-10-09T07:36:23;12.60;99.90
45849;DHT22;31567;54.600;9.842;2023-10-09T07:40:16;12.60;99.90
45849;DHT22;31567;54.600;9.842;2023-10-09T07:43:57;12.50;99.90
45849;DHT22;31567;54.600;9.842;2023-10-09T07:47:37;12.50;99.90
45849;DHT22;31567;54.600;9.842;2023-10-09T07:51:46;12.60;99.90
45849;DHT22;31567;54.600;9.842;2023-10-09T07:55:27;12.70;99.90
45849;DHT22;31567;54.600;9.842;2023-10-09T07:59:18;12.70;99.90
45849;DHT22;31567;54.600;9.842;2023-10-09T08:02:58;12.80;99.90
45849;DHT22;31567;54.600;9.842;2023-10-09T08:06:41;12.90;99.90
45849;DHT22;31567;54.600;9.842;2023-10-09T08:10:24;12.90;99.90
45849;DHT22;31567;54.600;9.842;2023-10-09T08:14:03;12.90;99.90
45849;DHT22;31567;54.600;9.842;2023-10-09T08:21:47;13.00;99.90
45849;DHT22;31567;54.600;9.842;2023-10-09T08:25:47;13.00;99.90
45849;DHT22;31567;54.600;9.842;2023-10-09T08:29:46;13.10;99.90
45849;DHT22;31567;54.600;9.842;2023-10-09T08:33:27;13.00;99.90
45849;DHT22;31567;54.600;9.842;2023-10-09T08:37:06;13.10;99.90
45849;DHT22;31567;54.600;9.842;2023-10-09T08:40:51;13.00;99.90
45849;DHT22;31567;54.600;9.842;2023-10-09T08:44:34;13.00;99.90
45849;DHT22;31567;54.600;9.842;2023-10-09T08:48:14;13.00;99.90
45849;DHT22;31567;54.600;9.842;2023-10-09T08:51:59;12.90;99.90
45849;DHT22;31567;54.600;9.842;2023-10-09T08:55:43;13.00;99.90
45849;DHT22;31567;54.600;9.842;2023-10-09T08:59:23;13.00;99.90
45849;DHT22;31567;54.600;9.842;2023-10-09T09:03:02;13.00;99.90
45849;DHT22;31567;54.600;9.842;2023-10-09T09:06:43;12.90;99.90
45849;DHT22;31567;54.600;9.842;2023-10-09T09:10:28;12.90;99.90
45849;DHT22;31567;54.600;9.842;2023-10-09T09:14:14;12.80;99.90
45849;DHT22;31567;54.600;9.842;2023-10-09T09:18:08;12.80;99.90
45849;DHT22;31567;54.600;9.842;2023-10-09T09:21:59;12.80;99.90
45849;DHT22;31567;54.600;9.842;2023-10-09T09:25:50;12.80;99.90
45849;DHT22;31567;54.600;9.842;2023-10-09T09:29:39;12.70;99.90
45849;DHT22;31567;54.600;9.842;2023-10-09T09:33:24;12.70;99.90
45849;DHT22;31567;54.600;9.842;2023-10-09T09:37:09;12.80;99.90
45849;DHT22;31567;54.600;9.842;2023-10-09T09:40:57;12.80;99.90
45849;DHT22;31567;54.600;9.842;2023-10-09T09:44:37;12.80;99.90
45849;DHT22;31567;54.600;9.842;2023-10-09T09:48:24;12.90;99.90
45849;DHT22;31567;54.600;9.842;2023-10-09T09:52:04;13.10;99.90
45849;DHT22;31567;54.600;9.842;2023-10-09T09:55:51;13.10;99.90
45849;DHT22;31567;54.600;9.842;2023-10-09T09:59:40;13.10;99.90
45849;DHT22;31567;54.600;9.842;2023-10-09T10:03:28;13.10;99.90
45849;DHT22;31567;54.600;9.842;2023-10-09T10:07:12;13.10;99.90
45849;DHT22;31567;54.600;9.842;2023-10-09T10:10:55;13.10;99.90
45849;DHT22;31567;54.600;9.842;2023-10-09T10:14:54;13.10;99.90
45849;DHT22;31567;54.600;9.842;2023-10-09T10:19:00;13.10;99.90
45849;DHT22;31567;54.600;9.842;2023-10-09T10:23:17;13.20;99.90
45849;DHT22;31567;54.600;9.842;2023-10-09T10:31:03;13.10;99.90
45849;DHT22;31567;54.600;9.842;2023-10-09T10:42:15;13.20;99.90
45849;DHT22;31567;54.600;9.842;2023-10-09T10:46:14;13.20;99.90
45849;DHT22;31567;54.600;9.842;2023-10-09T10:50:18;13.20;99.90
45849;DHT22;31567;54.600;9.842;2023-10-09T10:54:09;13.20;99.90
45849;DHT22;31567;54.600;9.842;2023-10-09T10:58:25;13.20;99.90
45849;DHT22;31567;54.600;9.842;2023-10-09T11:02:11;13.30;99.90
45849;DHT22;31567;54.600;9.842;2023-10-09T11:05:51;13.30;99.90
45849;DHT22;31567;54.600;9.842;2023-10-09T11:09:43;13.40;99.90
45849;DHT22;31567;54.600;9.842;2023-10-09T11:13:36;13.60;99.90
45849;DHT22;31567;54.600;9.842;2023-10-09T11:17:37;13.70;99.90
45849;DHT22;31567;54.600;9.842;2023-10-09T11:21:20;13.80;99.90
45849;DHT22;31567;54.600;9.842;2023-10-09T11:24:59;13.90;99.90
45849;DHT22;31567;54.600;9.842;2023-10-09T11:29:15;13.90;99.90
45849;DHT22;31567;54.600;9.842;2023-10-09T11:33:08;14.00;99.90
45849;DHT22;31567;54.600;9.842;2023-10-09T11:36:53;14.00;99.90
45849;DHT22;31567;54.600;9.842;2023-10-09T11:40:35;14.10;99.90
45849;DHT22;31567;54.600;9.842;2023-10-09T11:44:39;14.00;99.90
45849;DHT22;31567;54.600;9.842;2023-10-09T11:48:19;14.10;99.90
45849;DHT22;31567;54.600;9.842;2023-10-09T11:52:10;14.10;99.90
45849;DHT22;31567;54.600;9.842;2023-10-09T11:55:51;14.00;99.90
45849;DHT22;31567;54.600;9.842;2023-10-09T11:59:33;14.00;99.90
45849;DHT22;31567;54.600;9.842;2023-10-09T12:03:18;13.90;99.90
45849;DHT22;31567;54.600;9.842;2023-10-09T12:07:02;13.90;99.90
45849;DHT22;31567;54.600;9.842;2023-10-09T12:10:51;14.00;99.90
45849;DHT22;31567;54.600;9.842;2023-10-09T12:14:34;14.00;99.90
45849;DHT22;31567;54.600;9.842;2023-10-09T12:18:14;14.00;99.90
45849;DHT22;31567;54.600;9.842;2023-10-09T12:21:54;14.00;99.90
45849;DHT22;31567;54.600;9.842;2023-10-09T12:25:34;14.00;99.90
45849;DHT22;31567;54.600;9.842;2023-10-09T12:29:14;14.10;99.90
45849;DHT22;31567;54.600;9.842;2023-10-09T12:32:54;14.10;99.90
45849;DHT22;31567;54.600;9.842;2023-10-09T12:36:34;14.20;99.90
45849;DHT22;31567;54.600;9.842;2023-10-09T12:40:16;14.10;99.90
45849;DHT22;31567;54.600;9.842;2023-10-09T12:44:03;14.20;99.90
45849;DHT22;31567;54.600;9.842;2023-10-09T12:47:44;14.10;99.90
45849;DHT22;31567;54.600;9.842;2023-10-09T12:51:23;14.10;99.90
45849;DHT22;31567;54.600;9.842;2023-10-09T12:55:09;14.10;99.90
45849;DHT22;31567;54.600;9.842;2023-10-09T12:59:02;14.10;99.90
45849;DHT22;31567;54.600;9.842;2023-10-09T13:02:44;14.20;99.90
45849;DHT22;31567;54.600;9.842;2023-10-09T13:06:24;14.20;99.90
45849;DHT22;31567;54.600;9.842;2023-10-09T13:10:04;14.30;99.90
45849;DHT22;31567;54.600;9.842;2023-10-09T13:13:52;14.30;99.90
45849;DHT22;31567;54.600;9.842;2023-10-09T13:17:32;14.40;99.90
45849;DHT22;31567;54.600;9.842;2023-10-09T13:21:11;14.40;99.90
45849;DHT22;31567;54.600;9.842;2023-10-09T13:24:51;14.40;99.90
45849;DHT22;31567;54.600;9.842;2023-10-09T13:28:32;14.40;99.90
45849;DHT22;31567;54.600;9.842;2023-10-09T13:32:12;14.40;99.90
45849;DHT22;31567;54.600;9.842;2023-10-09T13:35:54;14.50;99.90
45849;DHT22;31567;54.600;9.842;2023-10-09T13:39:35;14.50;99.90
45849;DHT22;31567;54.600;9.842;2023-10-09T13:43:19;14.50;99.90
45849;DHT22;31567;54.600;9.842;2023-10-09T13:47:03;14.60;99.90
45849;DHT22;31567;54.600;9.842;2023-10-09T13:50:44;14.50;99.90
45849;DHT22;31567;54.600;9.842;2023-10-09T13:54:24;14.70;99.90
45849;DHT22;31567;54.600;9.842;2023-10-09T13:58:17;14.60;99.90
45849;DHT22;31567;54.600;9.842;2023-10-09T14:02:00;14.70;99.90
45849;DHT22;31567;54.600;9.842;2023-10-09T14:05:42;14.70;99.90
45849;DHT22;31567;54.600;9.842;2023-10-09T14:09:33;14.80;99.90
45849;DHT22;31567;54.600;9.842;2023-10-09T14:13:24;14.80;99.90
45849;DHT22;31567;54.600;9.842;2023-10-09T14:17:08;14.80;99.90
45849;DHT22;31567;54.600;9.842;2023-10-09T14:20:51;14.70;99.90
45849;DHT22;31567;54.600;9.842;2023-10-09T14:24:35;14.70;99.90
45849;DHT22;31567;54.600;9.842;2023-10-09T14:28:17;14.60;99.90
45849;DHT22;31567;54.600;9.842;2023-10-09T14:31:58;14.50;99.90
45849;DHT22;31567;54.600;9.842;2023-10-09T14:35:41;14.60;99.90
45849;DHT22;31567;54.600;9.842;2023-10-09T14:39:21;14.50;99.90
45849;DHT22;31567;54.600;9.842;2023-10-09T14:43:05;14.50;99.90
45849;DHT22;31567;54.600;9.842;2023-10-09T14:46:47;14.40;99.90
45849;DHT22;31567;54.600;9.842;2023-10-09T14:50:28;14.40;99.90
45849;DHT22;31567;54.600;9.842;2023-10-09T14:54:08;14.40;99.90
45849;DHT22;31567;54.600;9.842;2023-10-09T14:57:48;14.40;99.90
45849;DHT22;31567;54.600;9.842;2023-10-09T15:01:29;14.40;99.90
45849;DHT22;31567;54.600;9.842;2023-10-09T15:05:10;14.40;99.90
45849;DHT22;31567;54.600;9.842;2023-10-09T15:08:50;14.30;99.90
45849;DHT22;31567;54.600;9.842;2023-10-09T15:12:30;14.30;99.90
45849;DHT22;31567;54.600;9.842;2023-10-09T15:16:09;14.30;99.90
45849;DHT22;31567;54.600;9.842;2023-10-09T15:19:50;14.40;99.90
45849;DHT22;31567;54.600;9.842;2023-10-09T15:23:36;14.30;99.90
45849;DHT22;31567;54.600;9.842;2023-10-09T15:27:15;14.40;99.90
45849;DHT22;31567;54.600;9.842;2023-10-09T15:30:55;14.30;99.90
45849;DHT22;31567;54.600;9.842;2023-10-09T15:34:34;14.30;99.90
45849;DHT22;31567;54.600;9.842;2023-10-09T15:38:14;14.40;99.90
45849;DHT22;31567;54.600;9.842;2023-10-09T15:41:55;14.30;99.90
45849;DHT22;31567;54.600;9.842;2023-10-09T15:45:41;14.30;99.90
45849;DHT22;31567;54.600;9.842;2023-10-09T15:49:21;14.40;99.90
45849;DHT22;31567;54.600;9.842;2023-10-09T15:53:01;14.40;99.90
45849;DHT22;31567;54.600;9.842;2023-10-09T15:56:46;14.30;99.90
45849;DHT22;31567;54.600;9.842;2023-10-09T16:00:25;14.30;99.90
45849;DHT22;31567;54.600;9.842;2023-10-09T16:04:08;14.30;99.90
45849;DHT22;31567;54.600;9.842;2023-10-09T16:07:49;14.40;99.90
45849;DHT22;31567;54.600;9.842;2023-10-09T16:11:29;14.40;99.90
45849;DHT22;31567;54.600;9.842;2023-10-09T16:15:13;14.40;99.90
45849;DHT22;31567;54.600;9.842;2023-10-09T16:18:54;14.40;99.90
45849;DHT22;31567;54.600;9.842;2023-10-09T16:22:34;14.30;99.90
45849;DHT22;31567;54.600;9.842;2023-10-09T16:26:13;14.30;99.90
45849;DHT22;31567;54.600;9.842;2023-10-09T16:29:54;14.30;99.90
45849;DHT22;31567;54.600;9.842;2023-10-09T16:33:34;14.30;99.90
45849;DHT22;31567;54.600;9.842;2023-10-09T16:37:13;14.40;99.90
45849;DHT22;31567;54.600;9.842;2023-10-09T16:40:55;14.40;99.90
45849;DHT22;31567;54.600;9.842;2023-10-09T16:44:35;14.40;99.90
45849;DHT22;31567;54.600;9.842;2023-10-09T16:48:16;14.40;99.90
45849;DHT22;31567;54.600;9.842;2023-10-09T16:51:55;14.40;99.90
45849;DHT22;31567;54.600;9.842;2023-10-09T16:55:40;14.40;99.90
45849;DHT22;31567;54.600;9.842;2023-10-09T16:59:21;14.30;99.90
45849;DHT22;31567;54.600;9.842;2023-10-09T17:03:02;14.30;99.90
45849;DHT22;31567;54.600;9.842;2023-10-09T17:06:48;14.30;99.90
45849;DHT22;31567;54.600;9.842;2023-10-09T17:10:33;14.30;99.90
45849;DHT22;31567;54.600;9.842;2023-10-09T17:14:14;14.30;99.90
45849;DHT22;31567;54.600;9.842;2023-10-09T17:17:55;14.30;99.90
45849;DHT22;31567;54.600;9.842;2023-10-09T17:21:34;14.30;99.90
45849;DHT22;31567;54.600;9.842;2023-10-09T17:25:16;14.30;99.90
45849;DHT22;31567;54.600;9.842;2023-10-09T17:28:56;14.30;99.90
45849;DHT22;31567;54.600;9.842;2023-10-09T17:32:38;14.30;99.90
45849;DHT22;31567;54.600;9.842;2023-10-09T17:36:18;14.30;99.90
45849;DHT22;31567;54.600;9.842;2023-10-09T17:39:58;14.30;99.90
45849;DHT22;31567;54.600;9.842;2023-10-09T17:43:38;14.40;99.90
45849;DHT22;31567;54.600;9.842;2023-10-09T17:47:17;14.40;99.90
45849;DHT22;31567;54.600;9.842;2023-10-09T17:51:00;14.50;99.90
45849;DHT22;31567;54.600;9.842;2023-10-09T17:54:39;14.50;99.90
45849;DHT22;31567;54.600;9.842;2023-10-09T17:58:19;14.50;99.90
45849;DHT22;31567;54.600;9.842;2023-10-09T18:02:03;14.50;99.90
45849;DHT22;31567;54.600;9.842;2023-10-09T18:05:43;14.50;99.90
45849;DHT22;31567;54.600;9.842;2023-10-09T18:09:24;14.60;99.90
45849;DHT22;31567;54.600;9.842;2023-10-09T18:13:13;14.50;99.90
45849;DHT22;31567;54.600;9.842;2023-10-09T18:16:56;14.50;99.90
45849;DHT22;31567;54.600;9.842;2023-10-09T18:20:42;14.60;99.90
45849;DHT22;31567;54.600;9.842;2023-10-09T18:24:22;14.60;99.90
45849;DHT22;31567;54.600;9.842;2023-10-09T18:28:03;14.60;99.90
45849;DHT22;31567;54.600;9.842;2023-10-09T18:31:43;14.60;99.90
45849;DHT22;31567;54.600;9.842;2023-10-09T18:35:23;14.60;99.90
45849;DHT22;31567;54.600;9.842;2023-10-09T18:39:04;14.60;99.90
45849;DHT22;31567;54.600;9.842;2023-10-09T18:42:44;14.60;99.90
45849;DHT22;31567;54.600;9.842;2023-10-09T18:46:24;14.60;99.90
45849;DHT22;31567;54.600;9.842;2023-10-09T18:50:09;14.60;99.90
45849;DHT22;31567;54.600;9.842;2023-10-09T18:53:51;14.60;99.90
45849;DHT22;31567;54.600;9.842;2023-10-09T18:57:31;14.60;99.90
45849;DHT22;31567;54.600;9.842;2023-10-09T19:01:11;14.60;99.90
45849;DHT22;31567;54.600;9.842;2023-10-09T19:04:53;14.60;99.90
45849;DHT22;31567;54.600;9.842;2023-10-09T19:08:33;14.60;99.90
45849;DHT22;31567;54.600;9.842;2023-10-09T19:12:12;14.60;99.90
45849;DHT22;31567;54.600;9.842;2023-10-09T19:15:52;14.60;99.90
45849;DHT22;31567;54.600;9.842;2023-10-09T19:19:31;14.60;99.90
45849;DHT22;31567;54.600;9.842;2023-10-09T19:23:14;14.60;99.90
45849;DHT22;31567;54.600;9.842;2023-10-09T19:26:53;14.60;99.90
45849;DHT22;31567;54.600;9.842;2023-10-09T19:30:33;14.60;99.90
45849;DHT22;31567;54.600;9.842;2023-10-09T19:34:14;14.50;99.90
45849;DHT22;31567;54.600;9.842;2023-10-09T19:37:54;14.60;99.90
45849;DHT22;31567;54.600;9.842;2023-10-09T19:41:33;14.50;99.90
45849;DHT22;31567;54.600;9.842;2023-10-09T19:45:15;14.50;99.90
45849;DHT22;31567;54.600;9.842;2023-10-09T19:48:58;14.50;99.90
45849;DHT22;31567;54.600;9.842;2023-10-09T19:52:38;14.50;99.90
45849;DHT22;31567;54.600;9.842;2023-10-09T19:56:19;14.50;99.90
45849;DHT22;31567;54.600;9.842;2023-10-09T20:00:01;14.60;99.90
45849;DHT22;31567;54.600;9.842;2023-10-09T20:03:45;14.60;99.90
45849;DHT22;31567;54.600;9.842;2023-10-09T20:07:25;14.60;99.90
45849;DHT22;31567;54.600;9.842;2023-10-09T20:11:09;14.50;99.90
45849;DHT22;31567;54.600;9.842;2023-10-09T20:14:50;14.60;99.90
45849;DHT22;31567;54.600;9.842;2023-10-09T20:18:30;14.60;99.90
45849;DHT22;31567;54.600;9.842;2023-10-09T20:22:10;14.60;99.90
45849;DHT22;31567;54.600;9.842;2023-10-09T20:26:02;14.60;99.90
45849;DHT22;31567;54.600;9.842;2023-10-09T20:29:43;14.50;99.90
45849;DHT22;31567;54.600;9.842;2023-10-09T20:33:22;14.60;99.90
45849;DHT22;31567;54.600;9.842;2023-10-09T20:37:02;14.50;99.90
45849;DHT22;31567;54.600;9.842;2023-10-09T20:40:43;14.50;99.90
45849;DHT22;31567;54.600;9.842;2023-10-09T20:44:23;14.50;99.90
45849;DHT22;31567;54.600;9.842;2023-10-09T20:48:03;14.50;99.90
45849;DHT22;31567;54.600;9.842;2023-10-09T20:51:44;14.50;99.90
45849;DHT22;31567;54.600;9.842;2023-10-09T20:55:23;14.50;99.90
45849;DHT22;31567;54.600;9.842;2023-10-09T20:59:03;14.60;99.90
45849;DHT22;31567;54.600;9.842;2023-10-09T21:02:48;14.60;99.90
45849;DHT22;31567;54.600;9.842;2023-10-09T21:06:28;14.50;99.90
45849;DHT22;31567;54.600;9.842;2023-10-09T21:10:07;14.60;99.90
45849;DHT22;31567;54.600;9.842;2023-10-09T21:13:47;14.60;99.90
45849;DHT22;31567;54.600;9.842;2023-10-09T21:17:26;14.50;99.90
45849;DHT22;31567;54.600;9.842;2023-10-09T21:21:09;14.50;99.90
45849;DHT22;31567;54.600;9.842;2023-10-09T21:24:49;14.50;99.90
45849;DHT22;31567;54.600;9.842;2023-10-09T21:28:29;14.50;99.90
45849;DHT22;31567;54.600;9.842;2023-10-09T21:32:09;14.50;99.90
45849;DHT22;31567;54.600;9.842;2023-10-09T21:35:55;14.50;99.90
45849;DHT22;31567;54.600;9.842;2023-10-09T21:39:35;14.50;99.90
45849;DHT22;31567;54.600;9.842;2023-10-09T21:43:15;14.50;99.90
45849;DHT22;31567;54.600;9.842;2023-10-09T21:46:57;14.50;99.90
45849;DHT22;31567;54.600;9.842;2023-10-09T21:50:37;14.50;99.90
45849;DHT22;31567;54.600;9.842;2023-10-09T21:54:16;14.60;99.90
45849;DHT22;31567;54.600;9.842;2023-10-09T21:57:56;14.50;99.90
45849;DHT22;31567;54.600;9.842;2023-10-09T22:01:35;14.60;99.90
45849;DHT22;31567;54.600;9.842;2023-10-09T22:05:15;14.60;99.90
45849;DHT22;31567;54.600;9.842;2023-10-09T22:08:58;14.60;99.90
45849;DHT22;31567;54.600;9.842;2023-10-09T22:12:38;14.60;99.90
45849;DHT22;31567;54.600;9.842;2023-10-09T22:16:18;14.60;99.90
45849;DHT22;31567;54.600;9.842;2023-10-09T22:19:58;14.60;99.90
45849;DHT22;31567;54.600;9.842;2023-10-09T22:23:39;14.60;99.90
45849;DHT22;31567;54.600;9.842;2023-10-09T22:27:25;14.60;99.90
45849;DHT22;31567;54.600;9.842;2023-10-09T22:31:08;14.60;99.90
45849;DHT22;31567;54.600;9.842;2023-10-09T22:34:50;14.60;99.90
45849;DHT22;31567;54.600;9.842;2023-10-09T22:38:29;14.60;99.90
45849;DHT22;31567;54.600;9.842;2023-10-09T22:42:09;14.60;99.90
45849;DHT22;31567;54.600;9.842;2023-10-09T22:45:50;14.50;99.90
45849;DHT22;31567;54.600;9.842;2023-10-09T22:49:30;14.50;99.90
45849;DHT22;31567;54.600;9.842;2023-10-09T22:53:15;14.50;99.90
45849;DHT22;31567;54.600;9.842;2023-10-09T22:57:01;14.40;99.90
45849;DHT22;31567;54.600;9.842;2023-10-09T23:00:42;14.50;99.90
45849;DHT22;31567;54.600;9.842;2023-10-09T23:04:29;14.40;99.90
45849;DHT22;31567;54.600;9.842;2023-10-09T23:08:16;14.40;99.90
45849;DHT22;31567;54.600;9.842;2023-10-09T23:11:59;14.30;99.90
45849;DHT22;31567;54.600;9.842;2023-10-09T23:15:39;14.30;99.90
45849;DHT22;31567;54.600;9.842;2023-10-09T23:19:28;14.20;99.90
45849;DHT22;31567;54.600;9.842;2023-10-09T23:23:11;14.20;99.90
45849;DHT22;31567;54.600;9.842;2023-10-09T23:26:51;14.20;99.90
45849;DHT22;31567;54.600;9.842;2023-10-09T23:30:32;14.10;99.90
45849;DHT22;31567;54.600;9.842;2023-10-09T23:34:15;14.10;99.90
45849;DHT22;31567;54.600;9.842;2023-10-09T23:37:59;14.10;99.90
45849;DHT22;31567;54.600;9.842;2023-10-09T23:41:57;14.10;99.90
45849;DHT22;31567;54.600;9.842;2023-10-09T23:45:42;14.10;99.90
45849;DHT22;31567;54.600;9.842;2023-10-09T23:49:21;14.00;99.90